ADVERTISEMENT

iOS app on App Store Android app on Google Play

2016 \ Turkey Triathlon - November 20, 2016

Notes Pages Download Filter By
  [1] 2 3 4




Keyword Exact  
Division

Bib Division Last Name First Name Division Place Total Time Swim T1 Bike T2 Run Overall City State
126 35-39 Male De Azevedo Antunes Filho Jose Augusto 1 01:18:03 00:11:39 00:01:18 00:38:08 00:00:52 00:26:04 1 Sao Paulo SP
186 40-44 Male Girouard Tedd 1 01:26:24 00:15:24 00:02:05 00:38:49 00:00:58 00:29:06 2 Las Vegas NV
297 40-44 Male Nabor Dusty 2 01:26:44 00:12:19 00:01:37 00:40:27 00:01:04 00:31:15 3 Westlake Village CA
222 30-34 Male Jackson Mikael 1 01:27:52 00:15:06 00:02:36 00:39:36 00:00:50 00:29:42 4 Los Angeles CA
197 25-29 Male Grisdela Phil 1 01:29:20 00:13:59 00:02:55 00:43:45 00:00:52 00:27:47 5 Los Angeles CA
433 35-39 Male Armstrong Brian 2 01:29:20 00:13:06 00:01:46 00:41:06 00:00:55 00:32:26 6 Venice CA
95 20-24 Male Cantwell Daniel 1 01:29:31 00:15:11 00:02:35 00:41:48 00:00:43 00:29:12 7 Chino Hills CA
284 30-34 Male Mikes Jordan 2 01:29:51 00:14:02 00:01:42 00:41:26 00:01:16 00:31:23 8 Marina Del Rey CA
114 35-39 Male Corley Todd 3 01:30:08 00:17:51 00:01:36 00:39:50 00:00:40 00:30:09 9 Westlake Village CA
459 25-29 Male Lopen David 2 01:30:09 00:16:19 00:02:20 00:41:32 00:01:01 00:28:55 10 Rosemead CA
384 40-44 Male Stauffer William 3 01:31:02 00:15:22 00:02:26 00:41:43 00:01:23 00:30:05 11 Wrightwood CA
207 20-24 Male Hayden Karson 2 01:31:44 00:12:44 00:01:50 00:47:36 00:00:54 00:28:38 12 Huntington Beach CA
386 40-44 Male Steen Jake 4 01:32:02 00:15:07 00:02:18 00:40:26 00:01:14 00:32:54 13 Anaheim CA
115 16-19 Male Cormier Brody 1 01:32:14 00:14:19 00:02:10 00:43:37 00:00:48 00:31:18 14 Laguna Niguel CA
449 35-39 Female Crudale Rebecca 1 01:32:34 00:14:12 00:01:55 00:40:47 00:01:14 00:34:24 15 Poway CA
352 30-34 Male Rodriguez Edward 3 01:32:52 00:14:03 00:02:14 00:43:33 00:01:02 00:31:57 16 Upland CA
56 25-29 Male Asmussen Christopher 3 01:33:23 00:14:09 00:02:03 00:43:37 00:01:01 00:32:31 17 Los Angeles CA
136 30-34 Male Dominguez Adam 4 01:34:32 00:15:46 00:02:05 00:43:24 00:00:57 00:32:19 18 Anaheim CA
180 30-34 Male Gibbs Riley 5 01:34:53 00:12:39 00:02:32 00:43:24 00:01:58 00:34:18 19 Culver City CA
249 35-39 Female Langer Karin 2 01:35:48 00:12:57 00:02:09 00:43:32 00:01:30 00:35:38 20 Westlake Village CA
430 14-15 Male Yong Aston 1 01:36:10 00:15:05 00:02:09 00:44:55 00:00:48 00:33:12 21 San Marino CA
69 30-34 Male Barton David 6 01:36:11 00:13:45 00:02:28 00:45:55 00:00:48 00:33:15 22 Malibu CA
315 35-39 Male Paggi Gregory 4 01:36:15 00:12:07 00:02:00 00:46:19 00:01:20 00:34:27 23 Northridge CA
219 20-24 Male Holt Jesse 3 01:36:29 00:13:47 00:01:35 00:45:20 00:01:15 00:34:30 24 Irvine CA
194 16-19 Male Gray Elias 2 01:36:55 00:11:32 00:01:18 00:45:34 00:01:03 00:37:26 25 Anaheim CA
68 40-44 Male Bare Ian 5 01:37:07 00:15:19 00:02:41 00:42:40 00:01:51 00:34:33 26 Capistrano Beach CA
110 20-24 Female Christy Jamie 1 01:37:42 00:11:09 00:02:25 00:46:53 00:01:24 00:35:50 27 Atlanta GA
208 50-54 Male Heffernan Patrick 1 01:37:54 00:17:24 00:01:43 00:42:56 00:01:19 00:34:31 28 Moorpark CA
228 60-64 Male Jones Russ 1 01:38:29 00:16:28 00:01:59 00:43:35 00:00:39 00:35:45 29 San Juan Capistrano CA
93 45-49 Male Burtzo David 1 01:38:39 00:13:58 00:02:15 00:44:22 00:01:11 00:36:50 30 Huntington Beach CA
161 35-39 Male Fong Min 5 01:38:55 00:15:21 00:01:39 00:48:42 00:00:49 00:32:22 31 Montebello CA
209 45-49 Male Heindl Eric 2 01:38:57 00:13:49 00:02:02 00:46:56 00:01:01 00:35:08 32 Goleta CA
360 40-44 Male Saelens Cyril 6 01:38:59 00:16:29 00:02:26 00:45:24 00:01:18 00:33:19 33 Los Angeles CA
146 50-54 Female Ekelius-chow Anette 1 01:39:13 00:16:59 00:02:10 00:43:39 00:01:10 00:35:12 34 Anaheim CA
366 20-24 Male Sanderson Benji 4 01:39:17 00:15:16 00:02:25 00:48:23 00:00:58 00:32:13 35 Temple City CA
396 35-39 Male Tilton Michael 6 01:39:43 00:21:01 00:02:35 00:44:07 00:01:42 00:30:15 36 Murrieta CA
141 30-34 Male Dunphy Paul 7 01:39:56 00:16:54 00:02:21 00:45:51 00:01:06 00:33:41 37 Rancho Cucamonga CA
266 50-54 Female Macdonald Maureen 2 01:40:07 00:12:17 00:02:14 00:45:45 00:01:25 00:38:25 38 Sherman Oaks CA
403 25-29 Male Valdez Aaron 4 01:40:09 00:17:07 00:04:33 00:42:46 00:01:46 00:33:56 39 Burlingame CA
237 60-64 Male Kinney Robert 2 01:40:25 00:14:33 00:02:16 00:45:03 00:01:01 00:37:29 40 Newport Beach CA
417 30-34 Female Walker Jennifer 1 01:40:32 00:19:06 00:03:19 00:48:27 00:00:48 00:28:51 41 Irvine CA
454 55-59 Male Geary J J 1 01:40:33 00:15:30 00:03:08 00:46:12 00:01:25 00:34:17 42 San Pedro CA
195 40-44 Male Gregory Jason 7 01:40:54 00:14:43 00:03:21 00:44:10 00:01:56 00:36:42 43 Santa Rosa CA
323 55-59 Male Picker James 2 01:41:00 00:14:16 00:03:17 00:44:50 00:01:32 00:37:03 44 Monrovia CA
373 60-64 Male Shibata Les 3 01:41:11 00:19:02 00:01:52 00:47:18 00:00:48 00:32:09 45 Poway CA
427 16-19 Male Yerasi Devin 3 01:41:22 00:15:53 00:03:17 00:50:26 00:00:57 00:30:47 46 Corona Del Mar CA
294 25-29 Male Mosby Jacob 5 01:41:23 00:17:18 00:02:42 00:46:58 00:01:04 00:33:18 47 Glendora CA
339 45-49 Male Rapoza Craig 3 01:42:06 00:14:41 00:02:30 00:45:53 00:01:35 00:37:25 48 Long Beach CA
421 35-39 Male Wille Patrick 7 01:42:33 00:15:49 00:03:55 00:43:55 00:02:02 00:36:49 49 Seal Beach CA
163 25-29 Male Foster Zachary 6 01:42:35 00:18:32 00:02:06 00:43:50 00:01:12 00:36:53 50 Playa Del Rey CA
226 35-39 Male Jimenez Jorge 8 01:42:37 00:16:20 00:02:01 00:46:37 00:01:47 00:35:50 51 Chula Vista CA
129 40-44 Male De La O Jason 8 01:43:26 00:15:42 00:02:03 00:49:44 00:01:10 00:34:45 52 Costa Mesa CA
269 30-34 Male Malinge Yann 8 01:43:26 00:17:19 00:02:57 00:50:38 00:00:44 00:31:46 53 Long Beach CA
414 55-59 Male Vermeulen Ken 3 01:43:27 00:16:52 00:02:52 00:43:23 00:01:18 00:38:59 54 Tustin CA
393 50-54 Male Thacher Andrew 2 01:43:37 00:14:08 00:02:37 00:50:31 00:01:36 00:34:43 55 San Diego CA
311 40-44 Male Obst Dean 9 01:43:46 00:18:52 00:02:56 00:45:11 00:01:08 00:35:38 56 Arcadia CA
205 12-13 Female Harita Elizabeth 1 01:44:06 00:13:09 00:02:19 00:51:01 00:01:00 00:36:34 57 Anaheim CA
143 20-24 Male Eberling Patrick 5 01:44:23 00:14:07 00:02:19 00:43:46 00:01:25 00:42:45 58 Newport Beach CA
383 45-49 Male Spitz Steven 4 01:44:26 00:14:36 00:03:05 00:46:19 00:01:18 00:39:05 59 Los Angeles CA
193 25-29 Male Grant Robert 7 01:44:26 00:15:31 00:02:58 00:48:10 00:01:37 00:36:07 60 Laguna Niguel CA
182 20-24 Male Gifford Jacob 6 01:44:53 00:18:37 00:03:43 00:48:16 00:01:15 00:33:01 61 Azusa CA
127 35-39 Male De Cew Matthew 9 01:45:00 00:14:05 00:03:00 00:49:24 00:01:40 00:36:49 62 Oceanside CA
178 40-44 Male Giacobe Drew 10 01:45:08 00:12:25 00:02:45 00:46:27 00:01:49 00:41:41 63 Long Beach CA
187 40-44 Male Gomez John 11 01:45:35 00:17:03 00:02:41 00:48:24 00:01:16 00:36:09 64 Santa Fe Springs CA
111 55-59 Male Cioni Alberto 4 01:45:36 00:16:58 00:02:12 00:46:53 00:01:20 00:38:11 65 Los Angeles CA
340 16-19 Female Rapoza Jessie 1 01:45:46 00:16:35 00:03:27 00:47:31 00:01:40 00:36:31 66 Long Beach CA
117 14-15 Male Courson Caleb 2 01:46:02 00:16:53 00:04:41 00:46:08 00:02:13 00:36:06 67 Chino CA
201 30-34 Male Hansen Kevin 9 01:46:31 00:16:53 00:03:41 00:51:00 00:00:55 00:34:00 68 Lake Forest CA
169 45-49 Female Freyne Brigid 1 01:46:49 00:17:32 00:02:55 00:48:07 00:01:16 00:36:57 69 Temecula CA
149 35-39 Male Endo Keith 10 01:47:10 00:20:12 00:04:10 00:45:54 00:01:46 00:35:07 70 Agoura Hills CA
140 20-24 Female Dudley Quinn 2 01:47:52 00:14:20 00:03:47 00:50:28 00:00:54 00:38:21 71 Woodland Hills CA
332 45-49 Male Pratt Erin 5 01:48:15 00:18:08 00:04:10 00:45:25 00:01:54 00:38:36 72 Chino CA
337 35-39 Male Ramirez Diego 11 01:48:19 00:20:02 00:04:27 00:47:00 00:01:11 00:35:37 73 Victorville CA
103 35-39 Male Chavez Anthony 12 01:48:35 00:18:00 00:03:35 00:45:05 00:01:35 00:40:18 74 Aliso Viejo CA
424 25-29 Male Wu Jay 8 01:48:41 00:14:20 00:03:47 00:49:29 00:01:19 00:39:45 75 Trabuco Canyon CA
255 25-29 Female Little Monica 1 01:48:50 00:18:31 00:03:48 00:46:14 00:02:38 00:37:36 76 Camarillo CA
265 40-44 Female Lyons Chriss 1 01:48:57 00:17:28 00:03:05 00:48:29 00:01:41 00:38:13 77 Newbury Park CA
447 55-59 Male Stein James 5 01:49:06 00:16:37 00:03:19 00:47:57 00:01:22 00:39:49 78 Altadena CA
48 40-44 Male Alzona Mike 12 01:49:09 00:16:35 00:02:22 00:47:24 00:02:32 00:40:13 79 Irvine CA
150 20-24 Male Esparza Ryan 7 01:49:38 00:15:17 00:05:16 00:51:49 00:01:23 00:35:52 80 Trabuco Canyon CA
287 30-34 Male Mitchell Benjamin 10 01:49:47 00:15:48 00:02:49 00:50:44 00:01:26 00:38:57 81 Los Angeles CA
116 55-59 Female Cormier Karen 1 01:50:16 00:17:14 00:03:28 00:48:44 00:01:40 00:39:08 82 Los Angeles CA
369 20-24 Male Scavo Taylor 8 01:50:17 00:18:10 00:07:24 00:47:05 00:02:40 00:34:56 83 Brea CA
261 45-49 Female Lowden Leanne 2 01:50:26 00:17:49 00:03:54 00:49:57 00:02:04 00:36:41 84 La Canada CA
223 35-39 Male Janke James 13 01:50:47 00:15:51 00:02:48 00:52:43 00:02:26 00:36:58 85 Helendale CA
353 35-39 Male Rohdenburg Paul 14 01:51:12 00:17:43 00:03:27 00:48:55 00:01:37 00:39:28 86 Seal Beach CA
441 20-24 Female Golden Kimberly 3 01:51:13 00:17:52 00:02:55 00:50:00 00:01:30 00:38:54 87 Glendora CA
391 20-24 Female Takahashi Colleen 4 01:51:18 00:15:38 00:02:27 00:52:41 00:01:31 00:38:58 88 Upland CA
61 65-69 Male Babbitt Bob 1 01:51:26 00:14:52 00:02:21 00:46:24 00:01:58 00:45:49 89 Carlsbad CA
442 40-44 Male Hernandez Roger 13 01:51:27 00:19:33 00:03:06 00:51:09 00:02:28 00:35:09 90 West Covina CA
316 40-44 Male Palmer Richard 14 01:51:27 00:00:00 00:00:00 00:49:51 00:01:23 00:40:00 91 Arcadia CA
82 20-24 Male Boyd Andrew 9 01:51:43 00:18:51 00:04:49 00:47:02 00:02:53 00:38:06 92 Langhrone PA
106 20-24 Male Cheng Joshua 10 01:52:03 00:13:10 00:03:37 00:52:29 00:01:00 00:41:46 93 Reseda CA
271 30-34 Male Marquez Paris Enrique 11 01:52:13 00:16:12 00:02:57 00:52:02 00:01:38 00:39:22 94 Valley Village CA
76 25-29 Male Blanchard Michael 9 01:52:18 00:12:19 00:03:52 00:51:21 00:01:57 00:42:46 95 Camarillo CA
42 50-54 Male Abelowitz Steven 3 01:52:25 00:18:42 00:02:32 00:46:43 00:02:36 00:41:50 96 Newport Coast CA
357 70-74 Male Ruiz Rene 1 01:52:36 00:16:32 00:02:09 00:50:05 00:01:09 00:42:39 97 Chula Vista CA
177 35-39 Male Geraldez Marc 15 01:52:48 00:22:13 00:02:48 00:45:07 00:01:49 00:40:49 98 Los Angeles CA
120 20-24 Female Crowley Marilyn 5 01:52:50 00:20:53 00:02:53 00:51:07 00:01:45 00:36:10 99 Altadena CA
218 70-74 Male Holderman Dennis 2 01:52:54 00:14:47 00:02:20 00:48:26 00:01:25 00:45:55 100 San Pedro CA
Notes Pages Download Filter By
 




Keyword Exact  
Division

Bib Division Last Name First Name Division Place Total Time Overall Sex Place City State
502 Boys Bonfiglio Alexander 1 00:15:30 1 1 Canyon Country CA
529 Boys Duff Marley 2 00:15:43 2 2 Los Angeles CA
522 Boys Stauffer Matthew 3 00:15:50 3 3 Wrightwood CA
508 Boys Clarke Jensen 4 00:15:59 4 4 Newbury Park CA
26 Boys White Sterling 5 00:16:23 5 5
534 Girls Spreitzer Isabel 1 00:16:27 6 1 Manhatten Beach CA
504 Girls Bundy Lana 2 00:17:37 7 2 Alta Loma CA
523 Girls Stauffer Megan 3 00:18:10 8 3 Wrightwood CA
507 Boys Choi Logan 6 00:19:03 9 6 Chino Hills CA
520 Boys San Antonio Cole 7 00:19:20 10 7 Covina CA
521 Boys San Antonio Dane 8 00:19:34 11 8 Covina CA
512 Girls Gong Kate 4 00:20:42 12 4 Fullerton CA
515 Girls Nario Isabella 5 00:21:14 13 5 Rancho Cucamonga CA
533 Boys Spreitzer Benjamin 9 00:21:58 14 9 Manhatten Beach CA
511 Boys Geraldez Andrew 10 00:22:37 15 10 Los Angeles CA
27 Boys Smith Griffin 11 00:23:12 16 11
518 Girls Risdon Samantha 6 00:23:16 17 6 Santa Clarita CA
519 Boys Risdon Zane 12 00:23:19 18 12 Santa Clarita CA
513 Girls Gong Olivia 7 00:24:27 19 7 Fullerton CA
505 Boys Bundy Liam 13 00:26:08 20 13 Alta Loma CA
528 Boys Yip William 14 00:26:33 21 14 Lake Forest CA
524 Boys Tunnicliffe Gavin 15 00:26:51 22 15 Los Angeles CA
516 Girls Nario Sophia 8 00:28:25 23 8 Rancho Cucamonga CA
526 Boys Vasquez Justin 16 00:29:33 24 16 Foothill Ranch CA
506 Boys Campbell Isaiah 17 00:30:21 25 17 Corona CA
28 Boys Hunter Nathaniel 18 00:31:20 26 18 San Dimas CA
525 Boys Tunnicliffe James 19 00:35:36 27 19 Los Angeles CA
527 Boys Yip Alexander 20 00:36:13 28 20 Lake Forest CA
503 Boys Booth Jonah 21 00:37:20 29 21 Los Angeles CA
501 Girls Ayers Kennedy 9 00:39:54 30 9 Upland CA
Notes Pages Download Filter By
 




Keyword Exact  
Division

Bib Division First Name Last Name Team Name Overall Gun Division Place Swim T1 Bike T2 Run
23 Male Relay Timothy Lam Uci Eaters 1 01:32:57 1 00:15:02 00:01:16 00:45:55 00:00:42 00:30:00
23 Male Relay Trenton Mccoll Uci Eaters 1 01:32:57 1 00:15:02 00:01:16 00:45:55 00:00:42 00:30:00
23 Male Relay Brian Casebolt Uci Eaters 1 01:32:57 1 00:15:02 00:01:16 00:45:55 00:00:42 00:30:00
15 Mixed Relay Kristal Parks Sofa King Bueno 2 01:39:16 1 00:18:05 00:01:57 00:46:41 00:00:31 00:32:00
15 Mixed Relay Timothy Dougherty Sofa King Bueno 2 01:39:16 1 00:18:05 00:01:57 00:46:41 00:00:31 00:32:00
15 Mixed Relay Jordan Parks Sofa King Bueno 2 01:39:16 1 00:18:05 00:01:57 00:46:41 00:00:31 00:32:00
2 Female Relay Sheila Mccarthy A Snail's Pace 3 01:42:45 1 00:15:57 00:01:51 00:52:34 00:00:39 00:31:41
2 Female Relay Jenny Welch A Snail's Pace 3 01:42:45 1 00:15:57 00:01:51 00:52:34 00:00:39 00:31:41
2 Female Relay Heather Huggins A Snail's Pace 3 01:42:45 1 00:15:57 00:01:51 00:52:34 00:00:39 00:31:41
24 Mixed Relay Sara Andrzejewski Andrzejewski's 4 01:44:36 2 00:17:05 00:01:27 00:52:08 00:00:40 00:33:15
24 Mixed Relay Ryan Andrzejewski Andrzejewski's 4 01:44:36 2 00:17:05 00:01:27 00:52:08 00:00:40 00:33:15
24 Mixed Relay Aidan Andrzejewski Andrzejewski's 4 01:44:36 2 00:17:05 00:01:27 00:52:08 00:00:40 00:33:15
16 Male Relay Jerome Harris Team Harris 5 01:45:56 2 00:19:02 00:02:25 00:47:49 00:00:35 00:36:02
16 Male Relay Kevin Whitaker Team Harris 5 01:45:56 2 00:19:02 00:02:25 00:47:49 00:00:35 00:36:02
16 Male Relay Steven Calzada Team Harris 5 01:45:56 2 00:19:02 00:02:25 00:47:49 00:00:35 00:36:02
17 Male Relay Rob Slingerland Team Sling 6 01:47:50 3 00:20:29 00:02:04 00:53:50 00:00:37 00:30:48
17 Male Relay Sam Slingerland Team Sling 6 01:47:50 3 00:20:29 00:02:04 00:53:50 00:00:37 00:30:48
17 Male Relay Will Slingerland Team Sling 6 01:47:50 3 00:20:29 00:02:04 00:53:50 00:00:37 00:30:48
21 Mixed Relay Irene Wong Tri For Pie 7 01:47:50 3 00:13:38 00:00:58 00:54:43 00:00:36 00:37:52
21 Mixed Relay Nicole Gutzmann Tri For Pie 7 01:47:50 3 00:13:38 00:00:58 00:54:43 00:00:36 00:37:52
21 Mixed Relay Tamar Martinez Tri For Pie 7 01:47:50 3 00:13:38 00:00:58 00:54:43 00:00:36 00:37:52
3 Mixed Relay Carol Baird Baird Squared 8 01:57:35 4 00:20:00 00:01:32 00:51:44 00:00:46 00:43:31
3 Mixed Relay Mike Baird Baird Squared 8 01:57:35 4 00:20:00 00:01:32 00:51:44 00:00:46 00:43:31
14 Mixed Relay Jennifer Phillips Phillips Family Fun 9 02:02:59 5 00:19:03 00:01:38 01:12:36 00:00:42 00:28:58
14 Mixed Relay Scott Phillips Phillips Family Fun 9 02:02:59 5 00:19:03 00:01:38 01:12:36 00:00:42 00:28:58
14 Mixed Relay Andrew Moore Phillips Family Fun 9 02:02:59 5 00:19:03 00:01:38 01:12:36 00:00:42 00:28:58
13 Mixed Relay Mark Barata M3 10 02:09:05 6 00:24:02 00:02:09 00:56:16 00:00:42 00:45:53
13 Mixed Relay Mary Barata M3 10 02:09:05 6 00:24:02 00:02:09 00:56:16 00:00:42 00:45:53
13 Mixed Relay Matt Totten M3 10 02:09:05 6 00:24:02 00:02:09 00:56:16 00:00:42 00:45:53
5 Female Relay Vanessa Latini Keller Br And Crocs 11 02:10:09 2 00:18:32 00:01:28 00:58:11 00:00:47 00:51:08
5 Female Relay Monica Galarza Adams Br And Crocs 11 02:10:09 2 00:18:32 00:01:28 00:58:11 00:00:47 00:51:08
5 Female Relay Valerie Castellano Br And Crocs 11 02:10:09 2 00:18:32 00:01:28 00:58:11 00:00:47 00:51:08
8 Mixed Relay David Tripp Chips & Salsa 12 02:13:24 7 00:19:07 00:02:01 01:15:05 00:00:47 00:36:23
8 Mixed Relay Nancy Wren Chips & Salsa 12 02:13:24 7 00:19:07 00:02:01 01:15:05 00:00:47 00:36:23
8 Mixed Relay Walker Wren Chips & Salsa 12 02:13:24 7 00:19:07 00:02:01 01:15:05 00:00:47 00:36:23
9 Mixed Relay Deanna Nunez Eat My Dust 13 02:14:44 8 00:22:34 00:02:02 00:47:45 00:00:53 01:01:28
9 Mixed Relay Ramon Nunez Eat My Dust 13 02:14:44 8 00:22:34 00:02:02 00:47:45 00:00:53 01:01:28
9 Mixed Relay Sylvia Escobar Eat My Dust 13 02:14:44 8 00:22:34 00:02:02 00:47:45 00:00:53 01:01:28
25 Mixed Relay Brazos Minshew Fat and Happy 14 02:15:26 9 00:33:12 00:03:03 00:51:47 00:00:43 00:46:38
25 Mixed Relay David Digiorgio Fat and Happy 14 02:15:26 9 00:33:12 00:03:03 00:51:47 00:00:43 00:46:38
25 Mixed Relay Doris Sorto Fat and Happy 14 02:15:26 9 00:33:12 00:03:03 00:51:47 00:00:43 00:46:38
18 Mixed Relay David Tripp Team Trippple Threat 15 02:25:49 10 00:19:06 00:02:01 01:15:05 00:00:51 00:48:44
18 Mixed Relay Jonathan Tripp Team Trippple Threat 15 02:25:49 10 00:19:06 00:02:01 01:15:05 00:00:51 00:48:44
18 Mixed Relay Holly Tripp Team Trippple Threat 15 02:25:49 10 00:19:06 00:02:01 01:15:05 00:00:51 00:48:44
10 Mixed Relay Francisco Castaneda Get Out Of Our Guey 16 02:26:20 11 00:38:19 00:02:00 00:50:30 00:00:38 00:54:50
10 Mixed Relay Ramon A. Nunez Get Out Of Our Guey 16 02:26:20 11 00:38:19 00:02:00 00:50:30 00:00:38 00:54:50
10 Mixed Relay Sara Rios Get Out Of Our Guey 16 02:26:20 11 00:38:19 00:02:00 00:50:30 00:00:38 00:54:50
22 Female Relay Jean Diaz Tri Sisters 17 02:29:32 3 00:19:36 00:05:15 01:01:14 00:01:03 01:02:22
22 Female Relay Sharon Diaz Tri Sisters 17 02:29:32 3 00:19:36 00:05:15 01:01:14 00:01:03 01:02:22
6 Male Relay Brian Campbell Campbell Turkeys 18 02:35:22 4 00:16:22 00:01:56 01:29:51 00:00:47 00:46:23
6 Male Relay Sean Campbell Campbell Turkeys 18 02:35:22 4 00:16:22 00:01:56 01:29:51 00:00:47 00:46:23
6 Male Relay Ian Campbell Campbell Turkeys 18 02:35:22 4 00:16:22 00:01:56 01:29:51 00:00:47 00:46:23
20 Female Relay Jane Diaz Tri Cousins 19 02:35:54 4 00:33:40 00:02:46 00:59:10 00:01:02 00:59:15
20 Female Relay Gina Dyson Tri Cousins 19 02:35:54 4 00:33:40 00:02:46 00:59:10 00:01:02 00:59:15
20 Female Relay Lena Ballesteros Tri Cousins 19 02:35:54 4 00:33:40 00:02:46 00:59:10 00:01:02 00:59:15
19 Female Relay Kathy Cocker Tennis Chicks Tri-ing 20 02:54:23 5 00:19:03 00:02:12 01:22:58 00:00:58 01:09:10
19 Female Relay Lori Patton-raffy Tennis Chicks Tri-ing 20 02:54:23 5 00:19:03 00:02:12 01:22:58 00:00:58 01:09:10
19 Female Relay Shelley Mellantine Tennis Chicks Tri-ing 20 02:54:23 5 00:19:03 00:02:12 01:22:58 00:00:58 01:09:10